AST,Max TemperatureF,Mean TemperatureF,Min TemperatureF,Max Dew PointF,MeanDew PointF,Min DewpointF,Max Humidity, Mean Humidity, Min Humidity, Max Sea Level PressureIn, Mean Sea Level PressureIn, Min Sea Level PressureIn, Max VisibilityMiles, Mean VisibilityMiles, Min VisibilityMiles, Max Wind SpeedMPH, Mean Wind SpeedMPH, Max Gust SpeedMPH,PrecipitationIn, CloudCover, Events, WindDirDegrees
2012-8-1,90,86,81,83,77,75,89,77,63,29.98,29.93,29.86,6,6,6,20,17,,0.08,4,Rain,122
2012-8-2,89,85,81,77,74,37,79,71,19,29.97,29.92,29.86,19,8,6,22,18,,0.00,3,,102
2012-8-3,90,86,82,76,74,73,79,70,56,29.95,29.90,29.83,19,9,6,14,9,24,0.00,3,,70
2012-8-4,85,82,79,77,75,73,84,76,65,29.92,29.87,29.83,19,9,6,20,9,,0.00,4,,111
2012-8-5,89,85,81,77,75,73,79,72,61,29.98,29.93,29.89,19,10,6,28,23,,0.00,4,,104
2012-8-6,88,84,80,77,75,73,89,72,52,29.99,29.93,29.86,19,9,6,109,20,,0.00,3,,102
2012-8-7,86,82,77,79,76,73,89,81,74,29.95,29.88,29.83,19,9,6,17,15,,0.04,4,Rain,105
2012-8-8,86,82,78,80,76,75,94,82,70,29.95,29.87,29.80,19,8,6,22,14,,0.00,3,,100
2012-8-9,89,85,81,83,77,75,89,77,62,29.96,29.91,29.86,19,8,6,23,18,,0.00,3,,105
2012-8-10,89,85,81,77,76,73,84,73,57,29.97,29.92,29.89,19,8,6,21,18,,0.00,2,,112
2012-8-11,89,86,82,83,75,72,84,72,58,29.96,29.92,29.86,19,13,6,18,17,,0.00,3,,94
2012-8-12,89,83,77,77,75,73,94,78,58,29.94,29.88,29.83,19,10,6,17,12,,0.04,3,Rain,118
2012-8-13,92,86,81,85,76,73,79,72,59,29.97,29.91,29.86,16,7,6,29,23,,0.00,2,,101
2012-8-14,88,85,82,79,75,73,79,71,53,29.98,29.93,29.86,19,8,6,21,14,,0.00,3,,95
2012-8-15,90,85,80,76,75,73,84,72,51,30.00,29.94,29.86,6,6,6,20,16,,0.01,2,,96
2012-8-16,90,86,81,83,76,74,84,72,59,30.00,29.93,29.86,6,6,6,16,13,,0.00,3,,98
2012-8-17,89,84,79,83,76,73,84,73,50,29.98,29.92,29.86,6,6,6,18,15,,0.00,3,,92
2012-8-18,88,84,81,82,76,73,84,75,66,29.98,29.93,29.86,6,6,6,18,14,,0.00,2,,109
2012-8-19,93,87,81,82,76,73,79,72,57,30.03,29.96,29.92,19,8,6,26,19,,0.00,2,,96
2012-8-20,89,85,81,75,74,73,79,70,54,30.02,29.96,29.89,19,8,6,18,16,,0.00,3,,87
2012-8-21,89,84,79,77,73,72,79,69,56,29.99,29.93,29.89,19,7,6,17,15,,0.00,3,Rain,88
2012-8-22,90,85,80,84,74,72,75,67,54,29.96,29.88,29.80,19,12,6,14,10,,0.00,2,,70
2012-8-23,88,82,75,81,76,72,89,77,63,29.86,29.80,29.71,16,9,6,17,5,,0.00,3,,279
2012-8-24,87,80,74,77,75,73,94,77,66,29.87,29.82,29.77,19,9,6,21,17,22,0.00,3,,156
2012-8-25,93,87,81,85,78,75,84,76,66,29.92,29.85,29.77,19,10,6,21,15,,0.00,2,,110
2012-8-26,90,86,82,84,77,73,84,72,54,29.95,29.91,29.86,19,8,6,25,20,,0.00,1,,108
2012-8-27,86,80,75,77,76,72,89,76,67,30.03,29.96,29.92,19,9,6,25,20,,0.08,3,Rain-Thunderstorm,104
2012-8-28,89,86,82,81,76,75,79,72,58,30.02,29.96,29.89,6,6,6,23,17,,0.00,4,,125
2012-8-29,89,86,82,83,76,75,84,73,57,29.99,29.93,29.86,19,10,6,22,14,31,0.00,3,,126
2012-8-30,92,87,82,84,77,75,84,75,66,29.98,29.92,29.86,19,10,6,22,16,,0.04,4,Rain-Thunderstorm,108
2012-8-31,89,84,80,80,76,75,89,74,56,30.01,29.94,29.89,19,9,6,21,13,,0.04,4,Rain,116